createdAt,value
2024-01-03T00:01:43.861Z,2.43
2024-01-03T00:04:17.132Z,1.73
2024-01-03T00:06:44.422Z,1.87
2024-01-03T00:09:11.838Z,1.37
2024-01-03T00:11:39.851Z,1.50
2024-01-03T00:14:14.228Z,1.70
2024-01-03T00:16:41.956Z,1.73
2024-01-03T00:19:16.776Z,1.53
2024-01-03T00:21:44.269Z,2.43
2024-01-03T00:24:15.221Z,1.37
2024-01-03T00:26:43.150Z,1.20
2024-01-03T00:29:37.178Z,2.07
2024-01-03T00:32:07.569Z,2.73
2024-01-03T00:34:41.224Z,2.90
2024-01-03T00:37:31.703Z,3.00
2024-01-03T00:40:00.961Z,2.40
2024-01-03T00:42:28.363Z,1.87
2024-01-03T00:44:56.037Z,2.20
2024-01-03T00:47:24.188Z,1.70
2024-01-03T00:49:52.564Z,1.93
2024-01-03T00:52:21.675Z,1.87
2024-01-03T00:54:49.533Z,2.23
2024-01-03T00:57:17.660Z,2.10
2024-01-03T00:59:46.997Z,2.40
2024-01-03T01:02:15.080Z,3.20
2024-01-03T01:04:43.838Z,4.20
2024-01-03T01:07:12.428Z,2.50
2024-01-03T01:09:40.004Z,2.73
2024-01-03T01:12:07.583Z,2.87
2024-01-03T01:14:35.222Z,2.70
2024-01-03T01:17:02.894Z,2.42
2024-01-03T01:19:30.289Z,3.13
2024-01-03T01:21:57.951Z,3.20
2024-01-03T01:24:25.555Z,2.33
2024-01-03T01:26:53.066Z,2.90
2024-01-03T01:29:21.064Z,3.73
2024-01-03T01:31:48.765Z,3.67
2024-01-03T01:34:16.344Z,4.17
2024-01-03T01:36:44.742Z,3.47
2024-01-03T01:39:12.465Z,2.90
2024-01-03T01:41:39.979Z,2.55
2024-01-03T01:44:07.615Z,2.83
2024-01-03T01:46:38.769Z,2.60
2024-01-03T01:49:07.592Z,2.90
2024-01-03T01:51:37.022Z,3.60
2024-01-03T01:54:05.787Z,2.73
2024-01-03T01:56:34.583Z,3.38
2024-01-03T01:59:02.664Z,2.80
2024-01-03T02:01:31.492Z,3.25
2024-01-03T02:03:59.076Z,3.05
2024-01-03T02:06:26.935Z,2.97
2024-01-03T02:08:54.599Z,2.60
2024-01-03T02:11:21.979Z,4.15
2024-01-03T02:13:49.663Z,3.10
2024-01-03T02:16:16.917Z,4.22
2024-01-03T02:18:46.093Z,3.22
2024-01-03T02:21:17.862Z,3.58
2024-01-03T02:23:46.210Z,3.40
2024-01-03T02:26:21.707Z,3.97
2024-01-03T02:28:56.717Z,2.80
2024-01-03T02:31:24.360Z,2.85
2024-01-03T02:33:52.095Z,3.33
2024-01-03T02:36:19.737Z,3.42
2024-01-03T02:38:53.373Z,3.47
2024-01-03T02:41:21.126Z,2.33
2024-01-03T02:43:48.679Z,2.88
2024-01-03T02:46:20.427Z,2.63
2024-01-03T02:48:48.255Z,3.25
2024-01-03T02:51:23.479Z,3.80
2024-01-03T02:53:51.336Z,3.22
2024-01-03T02:56:19.322Z,2.70
2024-01-03T02:58:47.185Z,3.60
2024-01-03T03:01:14.990Z,2.78
2024-01-03T03:03:42.581Z,2.65
2024-01-03T03:06:10.254Z,4.40
2024-01-03T03:08:38.123Z,3.47
2024-01-03T03:11:06.361Z,3.35
2024-01-03T03:13:33.853Z,3.58
2024-01-03T03:16:02.093Z,2.67
2024-01-03T03:18:29.860Z,2.97
2024-01-03T03:20:57.604Z,3.72
2024-01-03T03:23:25.156Z,3.90
2024-01-03T03:25:53.272Z,2.95
2024-01-03T03:28:21.578Z,3.83
2024-01-03T03:30:49.072Z,3.08
2024-01-03T03:33:17.445Z,2.42
2024-01-03T03:35:44.967Z,4.13
2024-01-03T03:38:12.590Z,3.33
2024-01-03T03:40:40.000Z,2.28
2024-01-03T03:43:07.568Z,3.05
2024-01-03T03:45:34.837Z,3.63
2024-01-03T03:48:02.369Z,3.88
2024-01-03T03:50:29.972Z,3.53
2024-01-03T03:52:57.432Z,3.30
2024-01-03T03:55:24.852Z,2.90
2024-01-03T03:57:52.485Z,3.33
2024-01-03T04:00:20.833Z,3.25
2024-01-03T04:02:48.472Z,3.85
2024-01-03T04:05:15.900Z,3.83
2024-01-03T04:07:43.408Z,4.95
2024-01-03T04:10:10.976Z,4.45
2024-01-03T04:12:39.763Z,3.50
2024-01-03T04:15:07.593Z,4.22
2024-01-03T04:17:35.747Z,3.20
2024-01-03T04:20:03.390Z,3.60
2024-01-03T04:22:32.308Z,3.25
2024-01-03T04:24:59.540Z,5.95
2024-01-03T04:27:27.113Z,4.88
2024-01-03T04:29:54.642Z,3.78
2024-01-03T04:32:22.374Z,3.08
2024-01-03T04:34:49.973Z,4.30
2024-01-03T04:37:17.593Z,3.83
2024-01-03T04:39:45.193Z,5.03
2024-01-03T04:42:12.906Z,5.32
2024-01-03T04:44:43.562Z,4.13
2024-01-03T04:47:11.166Z,3.60
2024-01-03T04:49:38.616Z,5.07
2024-01-03T04:52:06.761Z,4.68
2024-01-03T04:54:34.206Z,4.20
2024-01-03T04:57:01.668Z,3.92
2024-01-03T04:59:29.128Z,3.75
2024-01-03T05:01:56.611Z,4.18
2024-01-03T05:04:24.016Z,4.03
2024-01-03T05:06:52.168Z,5.05
2024-01-03T05:09:19.748Z,3.90
2024-01-03T05:11:47.145Z,4.93
2024-01-03T05:14:14.926Z,4.10
2024-01-03T05:16:42.790Z,5.60
2024-01-03T05:19:10.464Z,4.07
2024-01-03T05:21:38.053Z,3.90
2024-01-03T05:24:05.639Z,4.65
2024-01-03T05:26:33.155Z,4.47
2024-01-03T05:29:00.668Z,3.67
2024-01-03T05:31:28.026Z,4.20
2024-01-03T05:33:55.771Z,4.40
2024-01-03T05:36:23.280Z,4.68
2024-01-03T05:38:50.778Z,3.30
2024-01-03T05:41:18.074Z,4.90
2024-01-03T05:43:45.967Z,4.60
2024-01-03T05:46:13.602Z,4.20
2024-01-03T05:48:42.813Z,2.93
2024-01-03T05:51:11.726Z,3.17
2024-01-03T05:53:40.561Z,2.95
2024-01-03T05:56:09.796Z,3.08
2024-01-03T05:58:39.504Z,3.60
2024-01-03T06:01:08.279Z,3.27
2024-01-03T06:03:35.983Z,3.43
2024-01-03T06:06:03.748Z,3.70
2024-01-03T06:08:31.485Z,3.80
2024-01-03T06:10:59.071Z,2.20
2024-01-03T06:13:26.742Z,2.70
2024-01-03T06:15:54.033Z,2.70
2024-01-03T06:18:23.183Z,2.10
2024-01-03T06:20:50.823Z,1.73
2024-01-03T06:23:18.663Z,1.87
2024-01-03T06:25:46.468Z,1.40
2024-01-03T06:28:13.797Z,2.20
2024-01-03T06:30:44.613Z,1.87
2024-01-03T06:33:12.292Z,1.73
2024-01-03T06:35:39.757Z,1.77
2024-01-03T06:38:07.616Z,2.00
2024-01-03T06:40:35.004Z,1.80
2024-01-03T06:43:02.570Z,1.40
2024-01-03T06:45:30.092Z,2.33
2024-01-03T06:47:57.831Z,1.67
2024-01-03T06:50:25.347Z,1.60
2024-01-03T06:52:52.893Z,1.80
2024-01-03T06:55:20.949Z,1.70
2024-01-03T06:57:50.410Z,1.90
2024-01-03T07:00:18.407Z,2.00
2024-01-03T07:02:48.558Z,2.08
2024-01-03T07:05:16.074Z,1.57
2024-01-03T07:07:43.504Z,2.50
2024-01-03T07:10:11.187Z,2.57
2024-01-03T07:12:41.899Z,1.93
2024-01-03T07:15:10.597Z,1.60
2024-01-03T07:17:38.028Z,2.27
2024-01-03T07:20:06.009Z,1.50
2024-01-03T07:22:33.310Z,1.10
2024-01-03T07:25:01.246Z,1.30
2024-01-03T07:27:28.825Z,1.80
2024-01-03T07:29:56.317Z,1.40
2024-01-03T07:32:24.554Z,1.33
2024-01-03T07:34:52.071Z,1.20
2024-01-03T07:37:19.335Z,1.23
2024-01-03T07:39:46.935Z,1.40
2024-01-03T07:42:15.053Z,1.00
2024-01-03T07:44:45.662Z,1.10
2024-01-03T07:47:13.528Z,1.37
2024-01-03T07:49:41.601Z,1.27
2024-01-03T07:52:09.313Z,1.30
2024-01-03T07:54:36.675Z,1.23
2024-01-03T07:57:06.378Z,1.30
2024-01-03T07:59:34.221Z,1.50
2024-01-03T08:02:03.173Z,1.20
2024-01-03T08:04:30.563Z,1.30
2024-01-03T08:06:58.393Z,1.17
2024-01-03T08:09:25.875Z,1.70
2024-01-03T08:11:53.370Z,1.20
2024-01-03T08:14:21.090Z,1.60
2024-01-03T08:16:48.764Z,1.63
2024-01-03T08:19:16.965Z,1.57
2024-01-03T08:21:44.357Z,2.27
2024-01-03T08:24:12.149Z,1.50
2024-01-03T08:26:39.648Z,1.70
2024-01-03T08:29:07.058Z,2.10
2024-01-03T08:31:35.347Z,1.60
2024-01-03T08:34:02.945Z,2.30
2024-01-03T08:36:44.557Z,1.47
2024-01-03T08:39:13.477Z,1.93
2024-01-03T08:41:41.190Z,2.20
2024-01-03T08:44:08.826Z,1.80
2024-01-03T08:46:46.022Z,2.20
2024-01-03T08:49:14.986Z,3.07
2024-01-03T08:51:47.270Z,2.13
2024-01-03T08:54:16.349Z,4.50
2024-01-03T08:56:43.698Z,2.40
2024-01-03T08:59:11.136Z,2.50
2024-01-03T09:01:38.694Z,2.20
2024-01-03T09:04:06.531Z,2.63
2024-01-03T09:06:39.612Z,3.03
2024-01-03T09:09:09.315Z,2.70
2024-01-03T09:11:37.945Z,2.73
2024-01-03T09:14:05.640Z,2.20
2024-01-03T09:16:33.899Z,2.37
2024-01-03T09:19:06.819Z,2.27
2024-01-03T09:21:36.675Z,1.90
2024-01-03T09:24:06.040Z,3.00
2024-01-03T09:26:33.723Z,3.37
2024-01-03T09:29:01.464Z,2.23
2024-01-03T09:31:29.025Z,2.53
2024-01-03T09:33:56.723Z,2.57
2024-01-03T09:36:27.460Z,2.70
2024-01-03T09:38:56.934Z,3.33
2024-01-03T09:41:25.461Z,2.27
2024-01-03T09:43:57.254Z,2.20
2024-01-03T09:46:25.322Z,3.03
2024-01-03T09:48:53.195Z,2.77
2024-01-03T09:51:21.451Z,2.83
2024-01-03T09:53:52.697Z,3.17
2024-01-03T09:56:20.197Z,4.33
2024-01-03T09:58:48.203Z,2.60
2024-01-03T10:01:15.967Z,2.30
2024-01-03T10:03:44.927Z,2.37
2024-01-03T10:06:19.491Z,1.43
2024-01-03T10:09:01.892Z,1.77
2024-01-03T10:11:30.655Z,2.13
2024-01-03T10:14:15.695Z,1.70
2024-01-03T10:16:45.882Z,2.17
2024-01-03T10:19:18.858Z,1.77
2024-01-03T10:21:56.368Z,2.07
2024-01-03T10:24:30.517Z,1.83
2024-01-03T10:27:12.699Z,2.67
2024-01-03T10:29:40.239Z,1.77
2024-01-03T10:32:11.340Z,2.83
2024-01-03T10:34:39.342Z,2.03
2024-01-03T10:37:06.811Z,2.33
2024-01-03T10:39:36.244Z,5.13
2024-01-03T10:42:07.152Z,12.07
2024-01-03T10:44:36.225Z,6.60
2024-01-03T10:47:03.877Z,4.60
2024-01-03T10:49:31.367Z,5.50
2024-01-03T10:52:03.889Z,3.30
2024-01-03T10:54:46.003Z,2.70
2024-01-03T10:57:16.177Z,3.57
2024-01-03T10:59:57.490Z,2.10
2024-01-03T11:02:47.682Z,2.80
2024-01-03T11:05:24.876Z,2.80
2024-01-03T11:08:04.182Z,4.00
2024-01-03T11:10:55.899Z,3.50
2024-01-03T11:13:34.689Z,2.90
2024-01-03T11:16:04.063Z,2.80
2024-01-03T11:18:45.732Z,2.57
2024-01-03T11:21:26.885Z,3.37
2024-01-03T11:23:55.147Z,3.00
2024-01-03T11:26:55.012Z,4.43
2024-01-03T11:29:43.705Z,2.93
2024-01-03T11:32:34.726Z,3.00
2024-01-03T11:35:08.254Z,3.27
2024-01-03T11:37:36.987Z,2.93
2024-01-03T11:40:07.778Z,2.30
2024-01-03T11:42:42.661Z,2.97
2024-01-03T11:45:13.463Z,2.72
2024-01-03T11:47:46.254Z,3.30
2024-01-03T11:50:17.344Z,3.27
2024-01-03T11:52:48.676Z,3.13
2024-01-03T11:55:20.332Z,3.35
2024-01-03T11:57:50.013Z,2.30
2024-01-03T12:00:22.863Z,3.08
2024-01-03T12:02:51.664Z,2.50
2024-01-03T12:05:19.277Z,4.83
2024-01-03T12:07:50.169Z,3.07
2024-01-03T12:10:20.065Z,2.67
2024-01-03T12:12:54.209Z,4.18
2024-01-03T12:15:42.485Z,3.07
2024-01-03T12:18:16.697Z,3.50
2024-01-03T12:20:44.363Z,3.88
2024-01-03T12:23:15.180Z,4.20
2024-01-03T12:25:44.997Z,4.63
2024-01-03T12:28:19.309Z,3.50
2024-01-03T12:30:46.784Z,6.13
2024-01-03T12:33:18.036Z,3.35
2024-01-03T12:35:55.271Z,3.40
2024-01-03T12:38:24.328Z,4.72
2024-01-03T12:40:52.046Z,3.85
2024-01-03T12:43:21.325Z,4.25
2024-01-03T12:45:50.493Z,5.00
2024-01-03T12:48:21.443Z,3.65
2024-01-03T12:50:49.229Z,3.55
2024-01-03T12:53:16.964Z,4.68
2024-01-03T12:55:44.683Z,3.30
2024-01-03T12:58:12.131Z,4.75
2024-01-03T13:00:41.860Z,3.55
2024-01-03T13:03:10.120Z,4.05
2024-01-03T13:05:38.132Z,3.00
2024-01-03T13:08:06.104Z,3.22
2024-01-03T13:10:34.406Z,2.92
2024-01-03T13:13:03.661Z,2.88
2024-01-03T13:15:32.251Z,3.55
2024-01-03T13:18:00.578Z,3.53
2024-01-03T13:20:28.267Z,5.20
2024-01-03T13:22:55.729Z,3.10
2024-01-03T13:25:23.176Z,1.98
2024-01-03T13:27:50.749Z,4.82
2024-01-03T13:30:18.519Z,3.17
2024-01-03T13:32:51.295Z,14.63
2024-01-03T13:35:20.025Z,4.35
2024-01-03T13:37:47.580Z,3.38
2024-01-03T13:40:15.274Z,2.97
2024-01-03T13:42:43.711Z,2.13
2024-01-03T13:45:13.207Z,3.28
2024-01-03T13:47:40.860Z,2.17
2024-01-03T13:50:08.676Z,2.40
2024-01-03T13:52:36.297Z,2.53
2024-01-03T13:55:03.656Z,2.63
2024-01-03T13:57:31.511Z,2.20
2024-01-03T13:59:58.983Z,2.87
2024-01-03T14:02:26.342Z,2.92
2024-01-03T14:04:53.776Z,2.20
2024-01-03T14:07:21.027Z,2.23
2024-01-03T14:09:52.345Z,2.63
2024-01-03T14:12:20.685Z,2.10
2024-01-03T14:14:48.580Z,2.70
2024-01-03T14:17:16.157Z,1.70
2024-01-03T14:19:43.748Z,2.03
2024-01-03T14:22:13.581Z,2.13
2024-01-03T14:24:41.188Z,2.25
2024-01-03T14:27:08.923Z,2.03
2024-01-03T14:29:43.924Z,1.83
2024-01-03T14:32:13.875Z,2.47
2024-01-03T14:34:42.085Z,1.40
2024-01-03T14:37:10.220Z,1.70
2024-01-03T14:39:40.922Z,1.33
2024-01-03T14:42:09.181Z,1.50
2024-01-03T14:44:38.457Z,1.80
2024-01-03T14:47:08.656Z,1.17
2024-01-03T14:49:39.239Z,1.20
2024-01-03T14:52:07.655Z,1.17
2024-01-03T14:54:35.231Z,2.23
2024-01-03T14:57:03.358Z,0.90
2024-01-03T14:59:30.992Z,1.00
2024-01-03T15:01:58.726Z,1.30
2024-01-03T15:04:26.123Z,1.10
2024-01-03T15:07:00.704Z,1.30
2024-01-03T15:09:29.196Z,1.27
2024-01-03T15:11:57.003Z,1.40
2024-01-03T15:14:25.206Z,1.43
2024-01-03T15:16:53.342Z,1.07
2024-01-03T15:19:20.915Z,1.10
2024-01-03T15:22:21.235Z,1.93
2024-01-03T15:24:48.856Z,1.80
2024-01-03T15:27:16.447Z,1.63
2024-01-03T15:29:44.238Z,1.00
2024-01-03T15:32:12.892Z,1.37
2024-01-03T15:34:42.387Z,2.30
2024-01-03T15:37:12.378Z,1.57
2024-01-03T15:39:40.644Z,1.47
2024-01-03T15:42:10.539Z,1.40
2024-01-03T15:44:42.004Z,1.30
2024-01-03T15:47:09.649Z,1.10
2024-01-03T15:49:37.483Z,1.20
2024-01-03T15:52:09.198Z,1.43
2024-01-03T15:54:46.683Z,0.90
2024-01-03T15:57:16.572Z,0.70
2024-01-03T15:59:45.909Z,0.90
2024-01-03T16:02:13.752Z,0.90
2024-01-03T16:04:43.408Z,1.63
2024-01-03T16:07:10.837Z,0.97
2024-01-03T16:09:40.658Z,0.90
2024-01-03T16:12:08.916Z,1.37
2024-01-03T16:14:37.436Z,1.87
2024-01-03T16:17:06.820Z,1.30
2024-01-03T16:19:34.662Z,2.33
2024-01-03T16:22:02.282Z,1.40
2024-01-03T16:24:29.686Z,1.10
2024-01-03T16:27:01.865Z,1.40
2024-01-03T16:29:29.541Z,1.80
2024-01-03T16:31:59.110Z,1.50
2024-01-03T16:34:27.923Z,1.47
2024-01-03T16:37:01.259Z,1.93
2024-01-03T16:39:28.941Z,2.60
2024-01-03T16:42:00.440Z,1.70
2024-01-03T16:44:28.255Z,1.70
2024-01-03T16:46:56.268Z,1.43
2024-01-03T16:49:25.285Z,1.17
2024-01-03T16:51:54.561Z,2.07
2024-01-03T16:54:21.988Z,1.60
2024-01-03T16:56:49.821Z,2.07
2024-01-03T16:59:21.592Z,2.13
2024-01-03T17:01:49.823Z,1.90
2024-01-03T17:04:17.606Z,2.33
2024-01-03T17:06:47.165Z,1.40
2024-01-03T17:09:17.154Z,1.47
2024-01-03T17:11:45.952Z,1.37
2024-01-03T17:14:16.391Z,1.77
2024-01-03T17:16:44.952Z,1.83
2024-01-03T17:19:12.713Z,2.07
2024-01-03T17:21:40.620Z,1.30
2024-01-03T17:24:08.261Z,2.13
2024-01-03T17:26:37.438Z,6.93
2024-01-03T17:29:07.946Z,7.90
2024-01-03T17:31:37.114Z,3.23
2024-01-03T17:34:06.168Z,2.77
2024-01-03T17:36:34.786Z,2.50
2024-01-03T17:39:02.287Z,2.93
2024-01-03T17:41:31.772Z,8.97
2024-01-03T17:44:00.212Z,5.37
2024-01-03T17:46:28.082Z,3.57
2024-01-03T17:48:55.845Z,2.00
2024-01-03T17:51:23.828Z,1.93
2024-01-03T17:53:52.471Z,1.90
2024-01-03T17:56:25.169Z,3.13
2024-01-03T17:58:52.967Z,1.37
2024-01-03T18:01:20.563Z,1.50
2024-01-03T18:03:48.267Z,1.23
2024-01-03T18:06:16.151Z,1.50
2024-01-03T18:08:45.120Z,1.13
2024-01-03T18:11:13.823Z,1.50
2024-01-03T18:13:41.688Z,1.20
2024-01-03T18:16:09.027Z,1.90
2024-01-03T18:18:36.731Z,1.27
2024-01-03T18:21:08.128Z,2.87
2024-01-03T18:23:38.321Z,1.90
2024-01-03T18:26:06.408Z,1.57
2024-01-03T18:28:34.374Z,1.60
2024-01-03T18:31:01.915Z,1.70
2024-01-03T18:33:29.806Z,1.30
2024-01-03T18:35:57.814Z,2.23
2024-01-03T18:38:25.416Z,2.13
2024-01-03T18:40:53.022Z,2.13
2024-01-03T18:43:20.746Z,1.90
2024-01-03T18:45:49.921Z,1.57
2024-01-03T18:48:18.078Z,1.37
2024-01-03T18:50:47.762Z,2.13
2024-01-03T18:53:15.833Z,1.87
2024-01-03T18:55:43.279Z,1.43
2024-01-03T18:58:11.305Z,1.67
2024-01-03T19:00:40.047Z,1.40
2024-01-03T19:03:07.909Z,1.40
2024-01-03T19:05:35.865Z,1.10
2024-01-03T19:08:03.518Z,2.20
2024-01-03T19:10:31.161Z,1.13
2024-01-03T19:12:58.591Z,1.37
2024-01-03T19:15:26.210Z,1.00
2024-01-03T19:17:54.612Z,1.00
2024-01-03T19:20:22.297Z,1.30
2024-01-03T19:22:49.922Z,1.13
2024-01-03T19:25:17.577Z,0.87
2024-01-03T19:27:44.859Z,1.10
2024-01-03T19:30:12.890Z,1.40
2024-01-03T19:32:40.561Z,1.03
2024-01-03T19:35:08.977Z,1.23
2024-01-03T19:37:36.732Z,1.30
2024-01-03T19:40:04.315Z,1.43
2024-01-03T19:42:31.786Z,1.20
2024-01-03T19:44:59.308Z,1.20
2024-01-03T19:47:26.959Z,1.30
2024-01-03T19:49:54.582Z,1.70
2024-01-03T19:52:22.281Z,1.33
2024-01-03T19:54:50.685Z,1.47
2024-01-03T19:57:19.062Z,2.17
2024-01-03T19:59:47.468Z,1.70
2024-01-03T20:02:15.718Z,2.27
2024-01-03T20:04:43.938Z,1.87
2024-01-03T20:07:11.256Z,1.17
2024-01-03T20:09:39.159Z,1.40
2024-01-03T20:12:08.996Z,1.30
2024-01-03T20:14:36.857Z,1.77
2024-01-03T20:17:07.492Z,1.97
2024-01-03T20:19:34.972Z,2.93
2024-01-03T20:22:03.889Z,1.53
2024-01-03T20:24:35.351Z,1.40
2024-01-03T20:27:08.867Z,1.30
2024-01-03T20:29:36.701Z,2.17
2024-01-03T20:32:04.492Z,1.40
2024-01-03T20:34:32.284Z,1.97
2024-01-03T20:36:59.862Z,1.37
2024-01-03T20:39:28.370Z,1.77
2024-01-03T20:41:58.322Z,5.23
2024-01-03T20:44:26.217Z,4.83
2024-01-03T20:46:57.068Z,2.33
2024-01-03T20:49:26.333Z,6.13
2024-01-03T20:52:03.215Z,4.77
2024-01-03T20:54:30.838Z,7.93
2024-01-03T20:56:58.300Z,2.70
2024-01-03T20:59:25.647Z,4.13
2024-01-03T21:01:53.391Z,3.00
2024-01-03T21:04:21.184Z,5.37
2024-01-03T21:06:49.174Z,2.97
2024-01-03T21:09:16.883Z,1.63
2024-01-03T21:11:44.387Z,1.87
2024-01-03T21:14:18.798Z,2.37
2024-01-03T21:17:01.456Z,2.97
2024-01-03T21:19:32.771Z,3.03
2024-01-03T21:22:12.259Z,5.03
2024-01-03T21:24:46.031Z,4.53
2024-01-03T21:27:44.849Z,5.60
2024-01-03T21:30:10.332Z,9.73
2024-01-03T21:32:37.794Z,5.53
2024-01-03T21:35:05.440Z,7.00
2024-01-03T21:37:34.341Z,4.13
2024-01-03T21:40:03.025Z,5.20
2024-01-03T21:42:30.674Z,6.23
2024-01-03T21:45:00.263Z,4.47
2024-01-03T21:47:28.144Z,1.80
2024-01-03T21:49:55.870Z,1.23
2024-01-03T21:52:23.419Z,2.10
2024-01-03T21:54:51.132Z,1.50
2024-01-03T21:57:18.410Z,1.10
2024-01-03T21:59:45.893Z,1.20
2024-01-03T22:02:13.286Z,1.60
2024-01-03T22:04:42.549Z,1.57
2024-01-03T22:07:10.041Z,1.30
2024-01-03T22:09:37.635Z,1.47
2024-01-03T22:12:08.087Z,1.43
2024-01-03T22:14:46.652Z,1.60
2024-01-03T22:17:14.440Z,1.00
2024-01-03T22:19:43.743Z,1.10
2024-01-03T22:22:11.487Z,1.20
2024-01-03T22:24:41.459Z,1.10
2024-01-03T22:27:08.866Z,1.47
2024-01-03T22:29:37.146Z,0.80
2024-01-03T22:32:04.992Z,1.20
2024-01-03T22:34:32.486Z,1.30
2024-01-03T22:36:59.802Z,1.60
2024-01-03T22:39:27.384Z,1.13
2024-01-03T22:41:55.115Z,1.10
2024-01-03T22:44:22.597Z,1.57
2024-01-03T22:46:51.615Z,1.83
2024-01-03T22:49:20.357Z,1.07
2024-01-03T22:51:47.759Z,1.20
2024-01-03T22:54:15.630Z,1.00
2024-01-03T22:56:43.328Z,0.80
2024-01-03T22:59:11.009Z,0.80
2024-01-03T23:01:40.706Z,1.43
2024-01-03T23:04:10.277Z,0.87
2024-01-03T23:06:37.908Z,1.30
2024-01-03T23:09:05.698Z,1.00
2024-01-03T23:11:33.543Z,1.10
2024-01-03T23:14:00.814Z,1.53
2024-01-03T23:16:28.538Z,1.00
2024-01-03T23:18:57.589Z,0.93
2024-01-03T23:21:26.422Z,1.57
2024-01-03T23:23:53.836Z,0.93
2024-01-03T23:26:22.214Z,1.10
2024-01-03T23:28:49.887Z,0.77
2024-01-03T23:31:18.470Z,1.17
2024-01-03T23:33:47.847Z,1.10
2024-01-03T23:36:16.711Z,0.90
2024-01-03T23:38:44.939Z,0.90
2024-01-03T23:41:17.859Z,1.00
2024-01-03T23:43:47.853Z,0.80
2024-01-03T23:46:16.029Z,1.00
2024-01-03T23:48:43.804Z,1.00
2024-01-03T23:51:17.664Z,0.90
2024-01-03T23:53:45.336Z,0.90
2024-01-03T23:56:22.717Z,0.90
2024-01-03T23:58:50.743Z,1.00
